This is the latest recevied weather packets stored in our database for station/object GW1561. If no packets are shown the sender has not sent any weather packets the latest 10 day(s).
| Time | Temp. | Humidity | Pressure | Rain* | Wind** | Luminosity | Snow |
|---|---|---|---|---|---|---|---|
| 1777289802 | 5.56° C | 99% | 990.1 hPa | 0 mm | - | - | - |
| 1777285834 | 5.56° C | 99% | 989.5 hPa | 0 mm | - | - | - |
| 1777283679 | 5.56° C | 99% | 988.8 hPa | 0 mm | - | - | - |
| 1777278630 | 6.11° C | 99% | 987.4 hPa | 0 mm | - | - | - |
| 1777276462 | 6.67° C | 98% | 987.4 hPa | 0 mm | - | - | - |
| 1777274670 | 6.67° C | 98% | 986.7 hPa | 0 mm | - | - | - |
| 1777274310 | 7.22° C | 98% | 987.1 hPa | 0 mm | - | - | - |
| 1777273610 | 7.22° C | 98% | 987.4 hPa | 0 mm | - | - | - |
| 1777271065 | 7.78° C | 98% | 987.4 hPa | 0 mm | - | - | - |
| 1777270357 | 7.78° C | 98% | 987.8 hPa | 0 mm | - | - | - |
| 1777269979 | 7.78° C | 98% | 987.8 hPa | 0 mm | - | - | - |
| 1777269623 | 7.78° C | 98% | 987.8 hPa | 0 mm | - | - | - |
| 1777267126 | 8.33° C | 98% | 987.8 hPa | 0 mm | - | - | - |
| 1777266733 | 8.33° C | 98% | 987.8 hPa | 0 mm | - | - | - |
| 1777263508 | 8.89° C | 97% | 987.8 hPa | 0 mm | - | - | - |
| 1777254873 | 11.11° C | 95% | 986.7 hPa | 0 mm | - | - | - |
| 1777254135 | 11.11° C | 95% | 986.7 hPa | 0 mm | - | - | - |
| 1777253771 | 11.67° C | 94% | 986.7 hPa | 0 mm | - | - | - |
| 1777247674 | 15.56° C | 85% | 985.4 hPa | 0 mm | - | - | - |
| 1777245158 | 17.78° C | 74% | 985.1 hPa | 0 mm | - | - | - |
| 1777244805 | 17.78° C | 76% | 985.1 hPa | 0 mm | - | - | - |
| 1777241198 | 19.44° C | 63% | 984.7 hPa | 0 mm | - | - | - |
| 1777240488 | 20° C | 64% | 984.7 hPa | 0 mm | - | - | - |
| 1777238679 | 20° C | 61% | 984.4 hPa | 0 mm | - | - | - |
| 1777235814 | 20° C | 62% | 984.7 hPa | 0 mm | - | - | - |
* Rain since midnight (hover to see other rain measurements)
** Current wind speed in m/s (hover to see current wind gust speed)